createdAt,value
2022-11-29T07:05:15.202Z,41.85
2022-11-29T07:10:20.583Z,40.03
2022-11-29T07:15:25.074Z,38.35
2022-11-29T07:20:39.921Z,38.47
2022-11-29T07:25:54.863Z,38.55
2022-11-29T07:36:19.550Z,40.38
2022-11-29T07:41:31.083Z,38.83
2022-11-29T07:46:34.799Z,38.92
2022-11-29T07:51:40.039Z,38.67
2022-11-29T08:01:47.370Z,38.53
2022-11-29T08:06:52.780Z,38.78
2022-11-29T08:11:56.413Z,38.03
2022-11-29T08:17:00.587Z,38.30
2022-11-29T08:22:05.826Z,37.53
2022-11-29T08:27:13.046Z,39.50
2022-11-29T08:37:21.793Z,39.17
2022-11-29T08:47:38.696Z,36.53
2022-11-29T08:53:03.619Z,38.42
2022-11-29T08:58:12.361Z,38.03
2022-11-29T09:03:33.737Z,38.40
2022-11-29T09:08:39.047Z,38.20
2022-11-29T09:13:44.235Z,36.28
2022-11-29T09:18:51.863Z,37.80
2022-11-29T09:24:02.395Z,37.65
2022-11-29T09:29:07.817Z,36.17
2022-11-29T09:34:13.506Z,38.97
2022-11-29T09:39:18.695Z,37.70
2022-11-29T09:49:56.313Z,36.13
2022-11-29T09:55:21.476Z,36.83
2022-11-29T10:00:26.032Z,38.20
2022-11-29T10:05:33.354Z,37.83
2022-11-29T10:10:46.269Z,37.33
2022-11-29T10:15:54.019Z,36.67
2022-11-29T10:21:04.646Z,38.92
2022-11-29T10:26:12.935Z,37.30
2022-11-29T10:31:22.239Z,36.22
2022-11-29T10:36:30.693Z,37.83
2022-11-29T10:41:36.347Z,39.28
2022-11-29T10:46:40.136Z,37.80
2022-11-29T10:51:43.874Z,39.58
2022-11-29T10:56:49.750Z,38.28
2022-11-29T11:01:53.770Z,39.95
2022-11-29T11:07:02.355Z,38.75
2022-11-29T11:12:18.429Z,38.80
2022-11-29T11:17:26.448Z,40.70
2022-11-29T11:22:32.599Z,39.85
2022-11-29T11:27:49.373Z,39.13
2022-11-29T11:33:21.875Z,39.45
2022-11-29T11:38:27.368Z,40.92
2022-11-29T11:43:34.466Z,40.63
2022-11-29T11:48:54.324Z,41.13
2022-11-29T11:54:15.055Z,41.22
2022-11-29T11:59:56.050Z,41.75
2022-11-29T12:05:03.987Z,42.75
2022-11-29T12:10:17.251Z,43.10
2022-11-29T12:15:26.980Z,44.42
2022-11-29T12:20:43.540Z,43.03
2022-11-29T12:25:54.514Z,43.63
2022-11-29T12:31:21.506Z,45.60
2022-11-29T12:36:44.091Z,44.45
2022-11-29T12:41:59.295Z,43.90
2022-11-29T12:47:36.463Z,43.03
2022-11-29T12:52:53.953Z,45.22
2022-11-29T12:58:07.689Z,45.20
2022-11-29T13:03:32.050Z,43.90
2022-11-29T13:08:50.885Z,44.25
2022-11-29T13:14:20.197Z,43.47
2022-11-29T13:19:36.245Z,42.67
2022-11-29T13:24:43.596Z,44.65
2022-11-29T13:29:47.757Z,44.40
2022-11-29T13:34:55.128Z,44.38
2022-11-29T13:40:10.882Z,45.60
2022-11-29T13:45:34.570Z,45.45
2022-11-29T13:50:43.605Z,44.17
2022-11-29T13:55:49.942Z,44.50
2022-11-29T14:01:01.632Z,44.85
2022-11-29T14:06:34.468Z,45.17
2022-11-29T14:11:46.411Z,44.60
2022-11-29T14:16:53.758Z,45.78
2022-11-29T14:22:31.835Z,46.42
2022-11-29T14:28:00.144Z,45.53
2022-11-29T14:33:10.049Z,45.28
2022-11-29T14:38:25.047Z,46.80
2022-11-29T14:43:35.016Z,47.20
2022-11-29T14:48:39.283Z,47.38
2022-11-29T14:53:47.167Z,46.13
2022-11-29T14:59:30.503Z,46.25
2022-11-29T15:04:39.556Z,47.10
2022-11-29T15:09:46.707Z,46.03
2022-11-29T15:14:58.219Z,47.58
2022-11-29T15:20:17.639Z,47.95
2022-11-29T15:25:25.222Z,47.95
2022-11-29T15:30:33.140Z,49.42
2022-11-29T15:35:39.335Z,47.47
2022-11-29T15:40:52.914Z,46.10
2022-11-29T15:45:58.535Z,47.50
2022-11-29T15:51:06.470Z,48.50
2022-11-29T15:56:16.588Z,46.45
2022-11-29T16:01:24.314Z,48.47
2022-11-29T16:06:35.510Z,48.20
2022-11-29T16:11:41.729Z,46.53
2022-11-29T16:16:48.555Z,46.60
2022-11-29T16:22:17.688Z,47.35
2022-11-29T16:27:24.183Z,48.58
2022-11-29T16:32:31.741Z,45.20
2022-11-29T16:37:42.846Z,45.58
2022-11-29T16:43:07.481Z,47.80
2022-11-29T16:48:31.502Z,47.67
2022-11-29T16:53:37.394Z,47.55
2022-11-29T16:59:25.277Z,48.60
2022-11-29T17:04:13.084Z,46.63
2022-11-29T17:09:44.421Z,45.80
2022-11-29T17:14:51.590Z,48.90
2022-11-29T17:25:58.830Z,49.20
2022-11-29T17:31:11.776Z,47.10
2022-11-29T17:36:17.650Z,47.20
2022-11-29T17:41:23.897Z,49.25
2022-11-29T17:46:53.035Z,50.20
2022-11-29T17:52:08.435Z,49.40
2022-11-29T17:57:15.673Z,47.65
2022-11-29T18:15:30.141Z,50.22
2022-11-29T18:20:37.425Z,49.75
2022-11-29T18:26:01.835Z,51.90
2022-11-29T18:31:21.514Z,49.70
2022-11-29T18:36:27.855Z,52.47
2022-11-29T18:41:39.832Z,49.55
2022-11-29T18:46:50.330Z,49.38
2022-11-29T18:51:54.647Z,51.65
2022-11-29T18:56:58.805Z,51.55
2022-11-29T19:02:04.275Z,51.53
2022-11-29T19:07:08.313Z,50.13
2022-11-29T19:12:12.998Z,54.40
2022-11-29T19:17:21.851Z,51.45
2022-11-29T19:22:26.189Z,52.80
2022-11-29T19:27:30.792Z,51.20
2022-11-29T19:32:37.086Z,50.40
2022-11-29T19:37:44.173Z,52.15
2022-11-29T19:42:49.793Z,52.35
2022-11-29T19:47:56.741Z,51.65
2022-11-29T19:53:00.651Z,51.17
2022-11-29T19:58:07.192Z,51.55
2022-11-29T20:03:14.485Z,52.70
2022-11-29T20:08:47.665Z,54.33
2022-11-29T20:13:55.204Z,54.20
2022-11-29T20:19:01.853Z,53.47
2022-11-29T20:24:09.373Z,51.88
2022-11-29T20:29:14.489Z,54.83
2022-11-29T20:34:21.809Z,54.63
2022-11-29T20:39:36.198Z,54.55
2022-11-29T20:44:54.241Z,55.15
2022-11-29T20:50:00.376Z,57.45
2022-11-29T20:55:08.004Z,56.13
2022-11-29T21:00:14.106Z,59.30
2022-11-29T21:05:19.480Z,57.28
2022-11-29T21:10:23.508Z,57.47
2022-11-29T21:15:28.632Z,58.20
2022-11-29T21:20:34.975Z,56.28
2022-11-29T21:25:45.535Z,58.03
2022-11-29T21:30:50.062Z,58.70
2022-11-29T21:35:58.097Z,57.72
2022-11-29T21:41:01.978Z,60.22
2022-11-29T21:46:05.977Z,60.63
2022-11-29T21:51:13.854Z,60.35
2022-11-29T21:56:17.542Z,59.70
2022-11-29T22:01:22.151Z,60.55
2022-11-29T22:06:29.254Z,61.40
2022-11-29T22:11:34.421Z,60.72
2022-11-29T22:21:44.964Z,57.97
2022-11-29T22:26:49.948Z,60.22
2022-11-29T22:31:55.697Z,61.35
2022-11-29T22:37:00.895Z,62.35
